Time;durP1;ratioP1;P1;durP2;ratioP2;P2;SDS_P1;SDS_P2;PMS_P1;PMS_P2;Temp;Humidity;BMP_temperature;BMP_pressure;BME280_temperature;BME280_humidity;BME280_pressure;Samples;Min_cycle;Max_cycle;Signal;HPM_P1;HPM_P2
2024/02/01 00:02:27;;;;;;;84.10;34.80;;;;;;;1.49;82.09;101038.72;108135;1272;22566;-77
2024/02/01 00:05:19;;;;;;;85.60;36.50;;;;;;;1.48;82.09;101034.39;108032;1272;22518;-76
2024/02/01 00:08:10;;;;;;;79.40;34.60;;;;;;;1.46;81.91;101035.42;108261;1272;22719;-77
2024/02/01 00:11:01;;;;;;;87.70;35.80;;;;;;;1.42;81.77;101034.64;108199;1272;22593;-77
2024/02/01 00:13:52;;;;;;;77.80;32.80;;;;;;;1.38;81.80;101034.83;108282;1272;22737;-78
2024/02/01 00:16:43;;;;;;;80.20;34.30;;;;;;;1.31;81.53;101028.39;108224;1272;23540;-77
2024/02/01 00:19:36;;;;;;;79.40;34.60;;;;;;;1.26;81.67;101022.89;108189;1271;22589;-78
2024/02/01 00:22:27;;;;;;;82.20;33.90;;;;;;;1.23;81.27;101022.83;108152;1272;23870;-77
2024/02/01 00:25:18;;;;;;;77.30;34.80;;;;;;;1.13;81.00;101019.41;108126;1272;25121;-76
2024/02/01 00:28:09;;;;;;;75.80;32.10;;;;;;;1.01;80.87;101014.32;108218;1272;22999;-76
2024/02/01 00:31:00;;;;;;;75.60;30.70;;;;;;;0.82;81.93;101018.19;108210;1272;23271;-77
2024/02/01 00:33:51;;;;;;;70.40;30.40;;;;;;;0.62;82.45;101009.09;108181;1271;25410;-75
2024/02/01 00:36:42;;;;;;;77.20;32.00;;;;;;;0.54;82.81;101001.33;108399;1271;23930;-76
2024/02/01 00:39:33;;;;;;;78.60;31.60;;;;;;;0.53;82.80;100990.88;108270;1271;24056;-76
2024/02/01 00:42:24;;;;;;;76.10;34.10;;;;;;;0.56;82.58;100989.70;108293;1271;25403;-76
2024/02/01 00:45:15;;;;;;;84.90;37.40;;;;;;;0.57;82.16;100989.23;108207;1271;24397;-76
2024/02/01 00:48:07;;;;;;;86.10;37.30;;;;;;;0.54;81.88;100990.10;108279;1271;22562;-77
2024/02/01 00:50:58;;;;;;;85.00;39.10;;;;;;;0.49;81.72;100994.17;108323;1271;22570;-77
2024/02/01 00:53:49;;;;;;;83.90;36.80;;;;;;;0.39;81.67;100994.98;108291;1271;25407;-81
2024/02/01 00:56:40;;;;;;;71.80;32.10;;;;;;;0.31;81.69;100997.85;108292;1271;23432;-77
2024/02/01 00:59:31;;;;;;;79.70;32.00;;;;;;;0.23;81.97;101003.19;108290;1271;25149;-78
2024/02/01 01:02:22;;;;;;;69.20;30.70;;;;;;;0.15;82.37;101005.21;108228;1271;22669;-77
2024/02/01 01:05:13;;;;;;;74.00;31.80;;;;;;;0.07;82.60;101006.70;108255;1271;23170;-77
2024/02/01 01:08:05;;;;;;;68.20;27.70;;;;;;;0.07;82.72;101006.77;108270;1271;23159;-78
2024/02/01 01:10:56;;;;;;;72.90;28.90;;;;;;;0.05;82.76;101002.70;108183;1271;25239;-78
2024/02/01 01:13:47;;;;;;;76.10;30.40;;;;;;;0.06;82.89;100989.74;108186;1271;25330;-77
2024/02/01 01:16:38;;;;;;;80.50;32.90;;;;;;;0.05;82.78;100977.45;108260;1267;23170;-77
2024/02/01 01:19:29;;;;;;;78.70;32.60;;;;;;;0.03;82.82;100970.92;108356;1271;22542;-77
2024/02/01 01:22:20;;;;;;;82.90;37.80;;;;;;;0.02;82.68;100963.17;108278;1270;22542;-77
2024/02/01 01:25:11;;;;;;;82.00;37.00;;;;;;;-0.03;82.32;100967.70;108357;1271;22660;-77
2024/02/01 01:28:02;;;;;;;89.20;40.10;;;;;;;-0.07;82.34;100967.07;108416;1271;24341;-78
2024/02/01 01:30:53;;;;;;;85.80;37.70;;;;;;;-0.08;82.29;100970.19;108148;1271;23244;-78
2024/02/01 01:33:44;;;;;;;82.00;36.10;;;;;;;-0.09;82.28;100972.31;108118;1272;22718;-77
2024/02/01 01:36:36;;;;;;;92.90;37.60;;;;;;;-0.12;82.29;100966.50;108241;1271;22555;-77
2024/02/01 01:39:27;;;;;;;84.00;35.80;;;;;;;-0.14;82.37;100957.95;108332;1272;22687;-78
2024/02/01 01:42:17;;;;;;;82.30;36.50;;;;;;;-0.12;82.50;100952.23;108134;1272;24364;-77
2024/02/01 01:45:09;;;;;;;92.80;40.80;;;;;;;-0.10;82.62;100945.88;108090;1272;24333;-77
2024/02/01 01:48:00;;;;;;;85.00;38.60;;;;;;;-0.10;82.48;100947.76;108236;1271;22540;-77
2024/02/01 01:50:51;;;;;;;93.70;42.00;;;;;;;-0.09;82.59;100941.19;108338;1272;22680;-77
2024/02/01 01:53:44;;;;;;;95.00;42.10;;;;;;;-0.10;82.50;100936.09;108344;1272;24372;-77
2024/02/01 01:56:37;;;;;;;98.70;43.60;;;;;;;-0.12;82.52;100940.16;108243;1272;25346;-77
2024/02/01 01:59:28;;;;;;;95.80;45.30;;;;;;;-0.14;82.42;100938.82;108297;1271;22630;-78
2024/02/01 02:02:19;;;;;;;99.90;44.40;;;;;;;-0.19;82.45;100937.02;108275;1272;23288;-78
2024/02/01 02:05:11;;;;;;;97.90;42.80;;;;;;;-0.21;82.63;100926.81;108228;1271;23122;-78
2024/02/01 02:08:02;;;;;;;80.00;38.20;;;;;;;-0.22;82.75;100920.92;108258;1272;22568;-77
2024/02/01 02:10:54;;;;;;;91.00;42.00;;;;;;;-0.25;82.64;100917.00;108248;1272;23437;-77
2024/02/01 02:13:49;;;;;;;87.40;40.60;;;;;;;-0.26;82.72;100915.77;108197;1265;22688;-77
2024/02/01 02:16:40;;;;;;;88.90;41.60;;;;;;;-0.27;82.83;100908.63;108361;1272;22565;-77
2024/02/01 02:19:31;;;;;;;85.00;38.50;;;;;;;-0.27;82.94;100902.66;108324;1272;22610;-77
2024/02/01 02:22:23;;;;;;;81.50;37.50;;;;;;;-0.27;83.06;100893.89;108351;1272;22570;-78
2024/02/01 02:25:15;;;;;;;84.00;38.60;;;;;;;-0.24;83.17;100893.96;108328;1271;26652;-77
2024/02/01 02:28:06;;;;;;;83.10;37.30;;;;;;;-0.23;83.13;100890.60;108297;1271;22573;-77
2024/02/01 02:30:57;;;;;;;79.90;36.70;;;;;;;-0.22;83.26;100889.11;108181;1271;23101;-77
2024/02/01 02:33:48;;;;;;;76.40;36.60;;;;;;;-0.21;83.26;100885.27;108005;1271;25315;-78
2024/02/01 02:36:40;;;;;;;79.80;34.60;;;;;;;-0.22;83.30;100880.71;108145;1272;24179;-77
2024/02/01 02:39:31;;;;;;;71.20;32.00;;;;;;;-0.24;83.40;100876.16;107929;1272;22544;-77
2024/02/01 02:42:22;;;;;;;76.30;31.20;;;;;;;-0.26;83.62;100874.29;107878;1272;22524;-78
2024/02/01 02:45:14;;;;;;;72.70;30.20;;;;;;;-0.29;83.87;100865.89;107905;1272;22641;-77
2024/02/01 02:48:09;;;;;;;69.80;28.90;;;;;;;-0.29;84.30;100871.15;107959;1266;24411;-77
2024/02/01 02:51:00;;;;;;;72.30;28.00;;;;;;;-0.30;84.38;100863.92;107923;1271;25549;-77
2024/02/01 02:53:51;;;;;;;71.60;27.70;;;;;;;-0.30;84.78;100862.36;108013;1272;22637;-77
2024/02/01 02:56:42;;;;;;;61.40;25.60;;;;;;;-0.29;85.02;100860.48;107905;1272;22995;-77
2024/02/01 02:59:33;;;;;;;68.70;28.60;;;;;;;-0.27;85.29;100865.73;108046;1272;24247;-76
2024/02/01 03:02:24;;;;;;;66.60;26.20;;;;;;;-0.24;85.84;100866.13;107959;1272;22679;-78
2024/02/01 03:05:15;;;;;;;67.40;25.20;;;;;;;-0.23;85.93;100861.19;108195;1272;22931;-78
2024/02/01 03:08:09;;;;;;;59.00;25.90;;;;;;;-0.20;86.46;100863.23;107997;1272;22603;-78
2024/02/01 03:11:01;;;;;;;59.70;23.20;;;;;;;-0.18;86.52;100865.27;107926;1272;25639;-77
2024/02/01 03:13:52;;;;;;;61.20;23.90;;;;;;;-0.16;86.53;100858.21;108043;1272;22562;-78
2024/02/01 03:16:43;;;;;;;57.20;21.50;;;;;;;-0.14;86.86;100862.53;107976;1272;22569;-77
2024/02/01 03:19:38;;;;;;;57.80;24.60;;;;;;;-0.12;86.66;100852.42;107952;1272;22639;-77
2024/02/01 03:22:29;;;;;;;56.80;23.10;;;;;;;-0.10;86.85;100848.75;108089;1271;26547;-77
2024/02/01 03:25:28;;;;;;;59.70;24.80;;;;;;;-0.09;86.84;100848.50;107942;1272;22770;-77
2024/02/01 03:28:19;;;;;;;59.90;21.70;;;;;;;-0.05;87.37;100845.83;107990;1271;22999;-77
2024/02/01 03:31:11;;;;;;;58.00;21.60;;;;;;;-0.02;87.28;100846.45;107952;1272;22630;-77
2024/02/01 03:34:05;;;;;;;54.20;23.00;;;;;;;0.00;87.42;100844.10;107922;1272;22605;-77
2024/02/01 03:36:56;;;;;;;56.50;22.70;;;;;;;0.04;87.63;100842.38;107944;1271;24375;-77
2024/02/01 03:39:48;;;;;;;56.50;22.50;;;;;;;0.07;87.92;100835.33;108085;1271;23145;-77
2024/02/01 03:42:39;;;;;;;63.10;24.60;;;;;;;0.11;88.16;100826.92;108185;1271;25499;-77
2024/02/01 03:45:30;;;;;;;57.60;23.40;;;;;;;0.16;88.46;100819.61;108100;1271;24235;-77
2024/02/01 03:48:21;;;;;;;53.90;22.20;;;;;;;0.21;88.82;100813.34;108149;1271;22616;-77
2024/02/01 03:51:10;;;;;;;;;;;;;;;0.25;88.94;100810.57;108148;1271;23872;-77
2024/02/01 03:54:05;;;;;;;57.50;22.70;;;;;;;0.31;89.02;100803.34;107996;1271;23007;-77
2024/02/01 03:56:56;;;;;;;64.00;22.30;;;;;;;0.36;89.40;100800.76;108123;1271;22671;-77
2024/02/01 03:59:47;;;;;;;60.60;24.70;;;;;;;0.42;89.52;100796.98;108175;1270;23084;-79
2024/02/01 04:02:38;;;;;;;58.00;23.10;;;;;;;0.50;89.79;100795.84;108126;1271;22656;-77
2024/02/01 04:05:36;;;;;;;56.50;23.10;;;;;;;0.58;89.84;100792.11;108135;1271;23426;-77
2024/02/01 04:08:27;;;;;;;59.80;22.50;;;;;;;0.64;89.95;100788.41;108173;1271;24177;-77
2024/02/01 04:11:18;;;;;;;50.60;21.10;;;;;;;0.73;90.28;100790.18;108006;1271;23102;-77
2024/02/01 04:14:09;;;;;;;50.70;21.30;;;;;;;0.81;90.22;100788.66;107991;1271;22613;-77
2024/02/01 04:17:00;;;;;;;49.00;22.00;;;;;;;0.88;90.22;100786.73;107940;1271;22586;-78
2024/02/01 04:19:50;;;;;;;57.70;21.60;;;;;;;0.95;90.41;100787.02;107944;1271;22516;-77
2024/02/01 04:22:42;;;;;;;49.50;18.40;;;;;;;1.02;90.50;100781.16;108002;1271;22585;-77
2024/02/01 04:25:32;;;;;;;45.10;18.80;;;;;;;1.10;90.65;100780.27;108212;1271;22985;-77
2024/02/01 04:28:23;;;;;;;46.70;17.90;;;;;;;1.17;90.74;100779.42;108139;1260;25250;-77
2024/02/01 04:31:14;;;;;;;46.40;18.20;;;;;;;1.23;90.66;100776.40;108141;1271;24177;-78
2024/02/01 04:34:05;;;;;;;42.50;17.80;;;;;;;1.29;90.74;100784.84;108152;1271;22678;-77
2024/02/01 04:36:56;;;;;;;47.60;18.10;;;;;;;1.35;90.84;100785.74;107990;1271;24065;-77
2024/02/01 04:39:48;;;;;;;49.50;18.70;;;;;;;1.40;90.77;100789.95;107913;1271;22730;-77
2024/02/01 04:42:40;;;;;;;44.20;18.00;;;;;;;1.46;90.70;100792.66;107970;1272;22607;-77
2024/02/01 04:45:31;;;;;;;41.50;18.30;;;;;;;1.51;90.82;100790.29;107974;1272;22606;-77
2024/02/01 04:48:22;;;;;;;40.50;16.20;;;;;;;1.56;90.91;100782.77;107960;1272;26704;-77
2024/02/01 04:51:13;;;;;;;40.90;17.20;;;;;;;1.61;91.01;100783.11;107603;1272;23346;-76
2024/02/01 04:54:04;;;;;;;43.70;16.60;;;;;;;1.66;91.06;100783.00;107612;1272;24218;-77
2024/02/01 04:56:56;;;;;;;43.70;16.10;;;;;;;1.71;91.08;100770.70;107687;1272;23260;-76
2024/02/01 04:59:47;;;;;;;42.70;15.70;;;;;;;1.75;91.12;100772.40;107833;1272;22485;-77
2024/02/01 05:02:38;;;;;;;37.30;16.30;;;;;;;1.79;91.14;100774.40;107661;1270;22815;-77
2024/02/01 05:05:29;;;;;;;41.20;15.90;;;;;;;1.83;91.12;100772.63;107673;1272;25223;-76
2024/02/01 05:08:21;;;;;;;38.80;15.20;;;;;;;1.87;91.22;100770.48;107769;1272;22586;-76
2024/02/01 05:11:12;;;;;;;44.20;17.40;;;;;;;1.91;91.28;100762.96;107684;1259;24233;-75
2024/02/01 05:14:10;;;;;;;36.50;14.30;;;;;;;1.95;91.33;100766.39;107871;1271;22671;-75
2024/02/01 05:17:02;;;;;;;36.40;14.30;;;;;;;2.00;91.36;100765.23;108057;1271;24153;-76
2024/02/01 05:19:52;;;;;;;33.10;14.10;;;;;;;2.03;91.45;100764.74;108043;1271;22583;-77
2024/02/01 05:22:44;;;;;;;32.30;12.80;;;;;;;2.07;91.66;100767.77;108015;1271;22581;-76
2024/02/01 05:25:40;;;;;;;33.50;11.90;;;;;;;2.13;91.53;100756.77;107893;1271;22676;-76
2024/02/01 05:28:33;;;;;;;33.50;11.30;;;;;;;2.19;91.50;100756.63;107834;1271;23569;-77
2024/02/01 05:31:26;;;;;;;26.10;10.00;;;;;;;2.24;91.43;100757.45;108030;1271;22647;-77
2024/02/01 05:34:17;;;;;;;33.60;13.00;;;;;;;2.30;91.57;100757.60;107950;1271;25322;-76
2024/02/01 05:37:13;;;;;;;29.00;10.70;;;;;;;2.37;91.58;100757.13;107736;1271;22515;-78
2024/02/01 05:40:15;;;;;;;23.00;9.00;;;;;;;2.46;91.57;100761.05;107946;1271;22570;-76
2024/02/01 05:43:07;;;;;;;26.20;10.60;;;;;;;2.54;91.56;100761.34;107898;1272;24788;-78
2024/02/01 05:45:58;;;;;;;29.30;10.00;;;;;;;2.61;91.65;100762.68;107842;1272;24197;-77
2024/02/01 05:48:49;;;;;;;27.60;10.00;;;;;;;2.69;91.55;100763.05;107928;1272;22629;-76
2024/02/01 05:51:42;;;;;;;25.90;10.10;;;;;;;2.76;91.46;100765.95;108028;1271;22548;-77
2024/02/01 05:54:33;;;;;;;34.90;10.50;;;;;;;2.81;91.23;100767.62;108005;1250;22654;-77
2024/02/01 05:57:25;;;;;;;26.60;9.90;;;;;;;2.84;91.16;100769.48;108047;1272;25476;-78
2024/02/01 06:00:21;;;;;;;29.20;10.00;;;;;;;2.89;91.15;100764.68;107898;1272;24228;-78
2024/02/01 06:03:13;;;;;;;29.50;10.50;;;;;;;2.93;91.06;100762.11;107917;1272;22644;-77
2024/02/01 06:06:04;;;;;;;28.30;9.30;;;;;;;2.97;91.01;100759.14;107756;1264;22523;-79
2024/02/01 06:08:57;;;;;;;27.70;10.40;;;;;;;2.99;91.00;100762.34;107786;1272;24351;-76
2024/02/01 06:11:49;;;;;;;33.90;9.50;;;;;;;3.02;91.04;100761.82;107674;1272;22740;-78
2024/02/01 06:14:40;;;;;;;29.20;10.60;;;;;;;3.05;90.93;100762.09;107799;1272;22587;-77
2024/02/01 06:17:31;;;;;;;27.40;10.00;;;;;;;3.08;90.94;100760.80;107840;1272;22558;-77
2024/02/01 06:20:23;;;;;;;31.10;11.80;;;;;;;3.10;90.89;100759.66;107798;1272;23708;-77
2024/02/01 06:23:14;;;;;;;32.20;12.60;;;;;;;3.13;90.95;100766.86;107968;1272;22649;-78
2024/02/01 06:26:07;;;;;;;30.10;12.00;;;;;;;3.15;91.03;100775.36;108281;1271;22594;-79
2024/02/01 06:29:07;;;;;;;28.90;11.60;;;;;;;3.17;91.27;100773.42;108438;1267;23302;-80
2024/02/01 06:31:58;;;;;;;32.10;12.00;;;;;;;3.17;91.50;100777.54;107968;1260;22527;-78
2024/02/01 06:34:54;;;;;;;33.80;12.10;;;;;;;3.17;91.56;100783.84;108281;1264;22598;-78
2024/02/01 06:37:51;;;;;;;31.90;12.10;;;;;;;3.16;91.69;100790.39;108033;1264;22559;-77
2024/02/01 06:41:06;;;;;;;27.60;10.60;;;;;;;3.15;91.92;100788.22;108172;1270;23006;-76
2024/02/01 06:44:09;;;;;;;32.40;10.40;;;;;;;3.14;92.25;100787.42;108738;1270;22605;-77
2024/02/01 06:47:11;;;;;;;27.10;10.20;;;;;;;3.15;92.62;100789.77;108762;1271;23243;-80
2024/02/01 06:50:15;;;;;;;25.30;8.00;;;;;;;3.17;92.79;100786.20;107872;1269;25325;-79
2024/02/01 06:53:19;;;;;;;21.50;7.70;;;;;;;3.21;93.08;100785.67;108553;1263;23224;-80
2024/02/01 06:56:28;;;;;;;21.60;8.20;;;;;;;3.26;93.42;100789.55;108278;1264;25606;-79
2024/02/01 06:59:30;;;;;;;27.00;8.40;;;;;;;3.29;93.63;100788.08;108262;1271;22610;-79
2024/02/01 07:02:35;;;;;;;28.90;8.30;;;;;;;3.33;93.99;100792.99;107940;1267;23007;-79
2024/02/01 07:05:57;;;;;;;19.90;7.50;;;;;;;3.36;94.27;100787.69;108473;1260;22555;-79
2024/02/01 07:08:52;;;;;;;20.60;7.50;;;;;;;3.41;94.29;100793.91;108363;1271;24912;-77
2024/02/01 07:11:58;;;;;;;21.40;7.30;;;;;;;3.43;94.31;100795.67;108250;1260;23139;-78
2024/02/01 07:15:09;;;;;;;23.30;7.90;;;;;;;3.47;94.53;100800.05;108041;1267;22677;-78
2024/02/01 07:18:03;;;;;;;23.60;7.80;;;;;;;3.49;94.76;100794.79;109072;1271;24244;-79
2024/02/01 07:20:56;;;;;;;24.90;7.80;;;;;;;3.52;94.75;100791.23;108446;1259;22543;-78
2024/02/01 07:23:56;;;;;;;19.00;5.70;;;;;;;3.54;94.89;100793.55;111043;1271;22319;-79
2024/02/01 07:27:04;;;;;;;;;;;;;;;3.59;95.17;100791.17;111130;1264;22919;-80
2024/02/01 07:58:23;;;;;;;16.40;4.70;;;;;;;3.98;96.78;100809.77;111073;1256;22321;-77
2024/02/01 08:01:17;;;;;;;;;;;;;;;4.02;96.73;100812.55;111154;1263;22422;-75
2024/02/01 08:04:16;;;;;;;17.20;4.80;;;;;;;4.05;96.99;100810.06;111042;1264;23041;-75
2024/02/01 08:10:18;;;;;;;18.30;4.80;;;;;;;4.11;97.14;100804.75;111015;1270;22861;-75
2024/02/01 08:13:12;;;;;;;14.20;4.30;;;;;;;4.14;97.15;100807.14;111028;1264;22147;-75
2024/02/01 08:16:03;;;;;;;17.50;4.40;;;;;;;4.17;97.23;100806.91;111014;1271;22099;-74
2024/02/01 08:18:54;;;;;;;17.30;4.40;;;;;;;4.20;97.59;100809.50;110969;1271;22203;-76
2024/02/01 08:21:45;;;;;;;15.80;3.40;;;;;;;4.21;97.58;100814.35;111072;1271;23144;-75
2024/02/01 08:24:36;;;;;;;16.80;4.30;;;;;;;4.22;97.82;100816.30;110973;1271;22188;-75
2024/02/01 08:27:26;;;;;;;15.80;5.10;;;;;;;4.24;97.95;100810.21;111030;1271;22175;-76
2024/02/01 08:30:19;;;;;;;17.40;4.80;;;;;;;4.25;97.91;100809.55;111027;1266;23119;-76
2024/02/01 08:33:16;;;;;;;14.20;4.30;;;;;;;4.27;98.06;100813.38;111152;1270;22137;-76
2024/02/01 08:36:08;;;;;;;19.40;4.80;;;;;;;4.29;98.10;100821.48;111074;1263;22288;-75
2024/02/01 08:38:59;;;;;;;15.40;4.20;;;;;;;4.32;98.22;100825.07;111167;1269;22183;-75
2024/02/01 08:41:50;;;;;;;15.10;3.90;;;;;;;4.33;98.09;100824.65;111159;1267;23197;-75
2024/02/01 08:44:43;;;;;;;13.40;3.80;;;;;;;4.34;98.16;100824.55;111112;1269;103944;-75
2024/02/01 08:47:36;;;;;;;16.80;5.40;;;;;;;4.36;98.24;100826.26;111197;1264;22133;-74
2024/02/01 08:50:27;;;;;;;17.20;4.40;;;;;;;4.37;98.23;100824.02;111072;1267;22332;-75
2024/02/01 08:53:19;;;;;;;15.50;5.40;;;;;;;4.40;98.39;100826.31;111067;1256;22679;-78
2024/02/01 08:56:10;;;;;;;13.80;3.80;;;;;;;4.43;98.61;100827.16;111071;1271;22130;-77
2024/02/01 08:59:01;;;;;;;14.40;3.80;;;;;;;4.44;98.69;100825.71;111049;1267;22256;-77
2024/02/01 09:01:52;;;;;;;15.50;4.60;;;;;;;4.46;98.57;100830.81;111073;1267;22251;-75
2024/02/01 09:04:43;;;;;;;14.00;3.70;;;;;;;4.48;98.81;100831.48;110979;1267;23005;-76
2024/02/01 09:07:41;;;;;;;19.60;3.90;;;;;;;4.51;98.92;100831.66;111042;1256;22202;-75
2024/02/01 09:10:33;;;;;;;16.90;4.70;;;;;;;4.54;99.02;100833.34;111092;1263;22863;-74
2024/02/01 09:13:25;;;;;;;10.80;3.40;;;;;;;4.58;99.15;100837.62;111036;1261;22246;-77
2024/02/01 09:16:24;;;;;;;12.50;3.70;;;;;;;4.62;99.34;100840.05;109517;1271;22543;-76
2024/02/01 09:19:15;;;;;;;12.40;2.50;;;;;;;4.66;99.38;100839.74;107994;1263;23164;-76
2024/02/01 09:22:08;;;;;;;12.20;2.80;;;;;;;4.71;99.39;100839.65;108087;1271;22623;-78
2024/02/01 09:24:59;;;;;;;17.20;3.30;;;;;;;4.75;99.29;100843.44;108604;1271;24369;-77
2024/02/01 09:27:52;;;;;;;15.10;3.60;;;;;;;4.78;99.18;100846.23;107927;1271;24387;-76
2024/02/01 09:30:45;;;;;;;11.40;3.10;;;;;;;4.81;99.15;100845.23;111062;1271;22189;-76
2024/02/01 09:33:36;;;;;;;10.80;3.10;;;;;;;4.83;99.26;100848.42;109805;1272;22679;-75
2024/02/01 09:36:27;;;;;;;13.50;3.00;;;;;;;4.85;99.21;100848.63;108220;1268;22587;-77
2024/02/01 09:39:19;;;;;;;11.00;3.00;;;;;;;4.87;99.38;100852.86;108031;1271;22550;-75
2024/02/01 09:42:11;;;;;;;9.40;2.20;;;;;;;4.89;99.62;100852.48;108060;1271;25056;-77
2024/02/01 09:45:04;;;;;;;12.30;2.60;;;;;;;4.90;99.60;100851.05;108531;1259;24192;-77
2024/02/01 09:47:56;;;;;;;10.60;2.10;;;;;;;4.91;99.87;100854.34;108031;1270;26191;-78
2024/02/01 09:50:51;;;;;;;7.80;2.20;;;;;;;4.93;99.86;100857.69;107957;1256;25496;-77
2024/02/01 09:53:43;;;;;;;8.80;2.50;;;;;;;4.96;99.92;100866.11;111058;1271;22273;-78
2024/02/01 09:56:34;;;;;;;9.30;2.30;;;;;;;4.98;99.98;100865.59;111058;1265;23062;-77
2024/02/01 09:59:25;;;;;;;10.00;2.20;;;;;;;5.01;99.98;100865.59;111030;1261;22318;-75
2024/02/01 10:02:16;;;;;;;9.00;2.30;;;;;;;5.04;100.00;100862.94;111028;1265;22404;-74
2024/02/01 10:05:08;;;;;;;9.80;2.20;;;;;;;5.08;100.00;100858.98;111041;1271;22209;-76
2024/02/01 10:07:59;;;;;;;9.70;2.00;;;;;;;5.11;100.00;100848.70;111067;1256;22179;-74
2024/02/01 10:10:49;;;;;;;;;;;;;;;5.15;100.00;100844.52;111078;1271;22320;-76
2024/02/01 10:13:41;;;;;;;11.30;2.10;;;;;;;5.19;100.00;100842.63;111124;1268;22082;-75
2024/02/01 10:16:35;;;;;;;10.80;3.40;;;;;;;5.23;100.00;100837.95;111102;1270;22146;-75
2024/02/01 10:19:26;;;;;;;8.90;2.70;;;;;;;5.27;100.00;100835.00;111052;1263;22387;-75
2024/02/01 10:22:17;;;;;;;8.70;2.30;;;;;;;5.33;100.00;100835.67;111073;1259;22621;-73
2024/02/01 10:25:11;;;;;;;12.50;3.40;;;;;;;5.38;100.00;100837.15;111073;1263;22350;-76
2024/02/01 10:28:06;;;;;;;8.20;2.40;;;;;;;5.42;100.00;100834.22;110997;1271;22167;-74
2024/02/01 10:31:00;;;;;;;11.20;2.90;;;;;;;5.46;100.00;100831.73;110999;1271;22212;-75
2024/02/01 10:33:54;;;;;;;9.00;2.60;;;;;;;5.52;100.00;100828.52;110983;1271;22189;-74
2024/02/01 10:36:48;;;;;;;9.00;1.90;;;;;;;5.59;100.00;100821.87;111051;1271;22133;-75
2024/02/01 10:39:47;;;;;;;11.10;2.30;;;;;;;5.67;100.00;100821.60;111012;1271;22188;-74
2024/02/01 10:42:39;;;;;;;9.00;2.20;;;;;;;5.74;100.00;100817.71;111062;1271;22163;-74
2024/02/01 10:45:36;;;;;;;9.30;2.10;;;;;;;5.81;100.00;100811.28;111033;1271;22253;-75
2024/02/01 10:48:28;;;;;;;11.40;2.40;;;;;;;5.86;100.00;100810.41;111034;1266;22312;-76
2024/02/01 10:51:19;;;;;;;8.50;2.00;;;;;;;5.88;100.00;100809.72;110994;1272;22276;-75
2024/02/01 10:54:10;;;;;;;7.70;2.00;;;;;;;5.89;100.00;100809.54;111027;1259;22913;-75
2024/02/01 10:57:05;;;;;;;;;;;;;;;5.90;100.00;100801.04;110991;1264;22395;-76
2024/02/01 10:59:56;;;;;;;6.30;1.60;;;;;;;5.90;100.00;100800.27;111107;1266;22243;-76
2024/02/01 11:02:51;;;;;;;7.00;1.50;;;;;;;5.89;100.00;100800.60;111065;1270;22327;-77
2024/02/01 11:05:44;;;;;;;7.80;1.60;;;;;;;5.89;100.00;100797.99;111019;1272;22825;-75
2024/02/01 11:08:36;;;;;;;5.10;1.30;;;;;;;5.88;100.00;100797.45;111032;1264;22972;-74
2024/02/01 11:11:33;;;;;;;7.50;1.70;;;;;;;5.88;100.00;100801.02;111066;1270;22243;-75
2024/02/01 11:14:25;;;;;;;5.40;1.20;;;;;;;5.87;100.00;100795.91;111064;1267;22220;-75
2024/02/01 11:17:23;;;;;;;6.00;1.50;;;;;;;5.86;100.00;100795.91;111005;1271;22159;-77
2024/02/01 11:20:20;;;;;;;6.50;1.50;;;;;;;5.84;100.00;100799.84;111039;1267;22224;-76
2024/02/01 11:23:16;;;;;;;7.80;1.40;;;;;;;5.83;100.00;100795.19;111028;1266;22129;-76
2024/02/01 11:26:15;;;;;;;6.70;1.60;;;;;;;5.83;100.00;100795.02;110989;1270;22279;-77
2024/02/01 11:29:07;;;;;;;4.80;1.30;;;;;;;5.84;100.00;100794.14;111044;1271;22142;-76
2024/02/01 11:32:01;;;;;;;6.40;1.60;;;;;;;5.85;100.00;100795.41;111107;1264;22256;-77
2024/02/01 11:34:53;;;;;;;6.50;1.30;;;;;;;5.85;100.00;100792.39;111023;1264;22201;-75
2024/02/01 11:37:45;;;;;;;8.00;1.40;;;;;;;5.85;100.00;100793.02;111102;1264;22343;-75
2024/02/01 11:40:42;;;;;;;5.30;1.30;;;;;;;5.83;100.00;100793.98;108807;1267;22642;-75
2024/02/01 11:43:33;;;;;;;5.80;1.40;;;;;;;5.83;100.00;100793.61;108016;1252;22697;-76
2024/02/01 11:46:36;;;;;;;4.80;1.40;;;;;;;5.82;100.00;100785.92;108458;1263;24337;-77
2024/02/01 11:49:30;;;;;;;6.40;1.60;;;;;;;5.84;100.00;100788.59;108580;1260;22615;-76
2024/02/01 11:52:29;;;;;;;7.50;2.10;;;;;;;5.90;100.00;100793.04;107909;1271;24071;-75
2024/02/01 11:55:20;;;;;;;6.50;1.80;;;;;;;5.99;100.00;100792.10;108322;1263;22551;-75
2024/02/01 11:58:13;;;;;;;7.50;2.00;;;;;;;6.05;100.00;100793.38;107967;1264;22634;-76
2024/02/01 12:01:03;;;;;;;12.50;2.40;;;;;;;6.10;100.00;100789.92;111043;1250;22109;-78
2024/02/01 12:03:57;;;;;;;11.30;2.40;;;;;;;6.14;100.00;100788.86;111044;1271;22539;-77
2024/02/01 12:06:48;;;;;;;8.20;2.10;;;;;;;6.16;100.00;100789.14;111045;1271;22942;-78
2024/02/01 12:09:39;;;;;;;8.30;1.30;;;;;;;6.21;100.00;100792.97;110957;1271;22162;-78
2024/02/01 12:12:33;;;;;;;6.00;1.40;;;;;;;6.28;99.60;100788.11;111042;1252;22184;-75
2024/02/01 12:15:26;;;;;;;6.90;1.30;;;;;;;6.39;99.00;100790.43;111041;1265;22251;-79
2024/02/01 12:18:18;;;;;;;6.30;1.00;;;;;;;6.50;97.61;100798.84;111007;1264;22196;-75
2024/02/01 12:21:13;;;;;;;6.50;1.30;;;;;;;6.62;97.60;100794.08;111033;1265;22270;-75
2024/02/01 12:24:04;;;;;;;3.90;0.90;;;;;;;6.74;97.60;100796.83;111008;1266;22239;-78
2024/02/01 12:26:55;;;;;;;4.20;0.80;;;;;;;6.82;96.53;100795.95;111014;1265;22234;-76
2024/02/01 12:29:48;;;;;;;4.50;1.00;;;;;;;6.86;94.69;100793.45;111054;1264;22564;-78
2024/02/01 12:32:43;;;;;;;3.40;0.70;;;;;;;6.90;94.87;100790.64;110976;1266;22101;-76
2024/02/01 12:35:35;;;;;;;6.90;0.80;;;;;;;6.92;94.18;100790.75;111036;1268;22850;-81
2024/02/01 12:38:40;;;;;;;6.70;0.90;;;;;;;6.91;93.82;100785.92;111044;1265;22159;-77
2024/02/01 12:41:34;;;;;;;6.90;1.00;;;;;;;6.93;93.97;100789.84;110888;1267;22620;-77
2024/02/01 12:44:25;;;;;;;4.10;0.80;;;;;;;6.99;93.69;100792.52;110916;1261;22222;-77
2024/02/01 12:47:16;;;;;;;6.30;0.90;;;;;;;7.07;93.52;100786.02;110890;1265;22842;-79
2024/02/01 12:50:09;;;;;;;3.20;0.80;;;;;;;7.14;92.95;100788.02;110838;1264;22239;-76
2024/02/01 12:53:00;;;;;;;7.50;0.90;;;;;;;7.21;91.10;100793.20;110764;1270;22178;-78
2024/02/01 12:55:51;;;;;;;6.40;1.20;;;;;;;7.25;90.88;100796.66;110849;1264;22841;-77
2024/02/01 12:58:40;;;;;;;;;;;;;;;7.25;90.26;100794.98;110887;1268;22323;-76
2024/02/01 13:01:32;;;;;;;7.00;0.90;;;;;;;7.22;89.75;100791.11;110815;1267;23045;-79
2024/02/01 13:04:24;;;;;;;9.40;1.40;;;;;;;7.19;90.55;100798.27;110768;1265;22107;-77
2024/02/01 13:07:15;;;;;;;4.90;1.00;;;;;;;7.14;90.83;100798.73;110821;1266;22325;-79
2024/02/01 13:10:09;;;;;;;3.50;0.80;;;;;;;7.07;91.15;100806.64;110760;1270;22980;-77
2024/02/01 13:13:01;;;;;;;3.90;1.40;;;;;;;7.01;91.27;100808.89;110830;1272;22185;-75
2024/02/01 13:15:52;;;;;;;7.30;0.80;;;;;;;6.96;91.41;100807.44;110810;1272;22203;-76
2024/02/01 13:18:44;;;;;;;7.30;1.10;;;;;;;6.93;91.25;100806.41;110831;1264;22820;-79
2024/02/01 13:21:35;;;;;;;9.20;1.00;;;;;;;6.93;91.59;100803.94;110845;1272;22163;-77
2024/02/01 13:24:27;;;;;;;7.50;1.20;;;;;;;6.95;91.07;100806.73;110816;1268;22330;-76
2024/02/01 13:27:17;;;;;;;5.70;0.90;;;;;;;6.98;91.24;100806.98;110926;1265;22302;-78
2024/02/01 13:30:10;;;;;;;6.20;0.90;;;;;;;7.01;90.06;100813.64;110922;1267;23048;-79
2024/02/01 13:33:04;;;;;;;4.30;0.60;;;;;;;7.04;89.03;100816.49;110761;1270;22714;-78
2024/02/01 13:35:55;;;;;;;5.00;0.40;;;;;;;7.08;87.90;100821.58;110806;1270;22305;-76
2024/02/01 13:38:46;;;;;;;8.40;0.90;;;;;;;7.14;86.36;100823.95;110844;1269;22165;-76
2024/02/01 13:41:37;;;;;;;6.80;0.90;;;;;;;7.19;86.04;100834.84;111003;1267;22896;-77
2024/02/01 13:44:28;;;;;;;2.80;0.50;;;;;;;7.20;85.37;100836.79;111079;1263;22231;-76